sensor_id;sensor_type;location;lat;lon;timestamp;temperature;humidity
79698;SHT31;69168;42.708;23.286;2023-04-29T00:00:29;9.54;53.76
79698;SHT31;69168;42.708;23.286;2023-04-29T00:02:55;9.20;53.70
79698;SHT31;69168;42.708;23.286;2023-04-29T00:05:20;9.11;54.62
79698;SHT31;69168;42.708;23.286;2023-04-29T00:07:46;9.27;54.91
79698;SHT31;69168;42.708;23.286;2023-04-29T00:10:11;9.14;54.50
79698;SHT31;69168;42.708;23.286;2023-04-29T00:12:39;8.84;54.39
79698;SHT31;69168;42.708;23.286;2023-04-29T00:15:06;8.99;54.68
79698;SHT31;69168;42.708;23.286;2023-04-29T00:17:33;9.01;55.30
79698;SHT31;69168;42.708;23.286;2023-04-29T00:19:58;8.93;54.55
79698;SHT31;69168;42.708;23.286;2023-04-29T00:22:23;8.81;54.85
79698;SHT31;69168;42.708;23.286;2023-04-29T00:24:49;8.93;55.37
79698;SHT31;69168;42.708;23.286;2023-04-29T00:27:15;8.99;54.81
79698;SHT31;69168;42.708;23.286;2023-04-29T00:29:42;8.99;55.07
79698;SHT31;69168;42.708;23.286;2023-04-29T00:32:07;9.01;55.08
79698;SHT31;69168;42.708;23.286;2023-04-29T00:34:33;9.02;55.20
79698;SHT31;69168;42.708;23.286;2023-04-29T00:36:58;9.06;55.09
79698;SHT31;69168;42.708;23.286;2023-04-29T00:39:24;9.06;54.83
79698;SHT31;69168;42.708;23.286;2023-04-29T00:41:50;9.06;55.23
79698;SHT31;69168;42.708;23.286;2023-04-29T00:44:15;9.06;54.88
79698;SHT31;69168;42.708;23.286;2023-04-29T00:46:41;9.04;55.34
79698;SHT31;69168;42.708;23.286;2023-04-29T00:49:07;9.08;55.36
79698;SHT31;69168;42.708;23.286;2023-04-29T00:51:34;8.95;55.82
79698;SHT31;69168;42.708;23.286;2023-04-29T00:54:00;8.91;55.56
79698;SHT31;69168;42.708;23.286;2023-04-29T00:56:28;8.78;55.43
79698;SHT31;69168;42.708;23.286;2023-04-29T00:58:56;8.80;54.70
79698;SHT31;69168;42.708;23.286;2023-04-29T01:01:22;8.68;54.84
79698;SHT31;69168;42.708;23.286;2023-04-29T01:03:49;8.72;54.51
79698;SHT31;69168;42.708;23.286;2023-04-29T01:11:34;8.22;55.65
79698;SHT31;69168;42.708;23.286;2023-04-29T01:14:04;8.15;56.75
79698;SHT31;69168;42.708;23.286;2023-04-29T01:16:36;8.08;56.41
79698;SHT31;69168;42.708;23.286;2023-04-29T01:19:15;8.13;57.27
79698;SHT31;69168;42.708;23.286;2023-04-29T01:21:46;8.09;56.97
79698;SHT31;69168;42.708;23.286;2023-04-29T01:24:15;8.21;57.73
79698;SHT31;69168;42.708;23.286;2023-04-29T01:26:48;8.17;57.67
79698;SHT31;69168;42.708;23.286;2023-04-29T01:29:39;8.19;57.65
79698;SHT31;69168;42.708;23.286;2023-04-29T01:32:25;8.13;57.81
79698;SHT31;69168;42.708;23.286;2023-04-29T01:34:59;8.22;58.21
79698;SHT31;69168;42.708;23.286;2023-04-29T01:37:51;8.15;58.06
79698;SHT31;69168;42.708;23.286;2023-04-29T01:40:25;8.30;57.53
79698;SHT31;69168;42.708;23.286;2023-04-29T01:43:02;8.21;58.10
79698;SHT31;69168;42.708;23.286;2023-04-29T01:45:30;8.19;58.09
79698;SHT31;69168;42.708;23.286;2023-04-29T01:47:56;8.13;58.34
79698;SHT31;69168;42.708;23.286;2023-04-29T01:50:23;8.15;58.26
79698;SHT31;69168;42.708;23.286;2023-04-29T01:52:49;8.05;58.34
79698;SHT31;69168;42.708;23.286;2023-04-29T01:55:14;8.06;58.25
79698;SHT31;69168;42.708;23.286;2023-04-29T01:57:40;7.79;58.28
79698;SHT31;69168;42.708;23.286;2023-04-29T02:00:06;7.82;58.31
79698;SHT31;69168;42.708;23.286;2023-04-29T02:02:33;7.89;58.14
79698;SHT31;69168;42.708;23.286;2023-04-29T02:04:59;7.92;58.58
79698;SHT31;69168;42.708;23.286;2023-04-29T02:07:24;7.88;58.91
79698;SHT31;69168;42.708;23.286;2023-04-29T02:09:50;7.81;58.79
79698;SHT31;69168;42.708;23.286;2023-04-29T02:12:15;7.87;58.25
79698;SHT31;69168;42.708;23.286;2023-04-29T02:14:41;7.82;58.58
79698;SHT31;69168;42.708;23.286;2023-04-29T02:17:06;7.81;58.23
79698;SHT31;69168;42.708;23.286;2023-04-29T02:19:32;7.85;58.43
79698;SHT31;69168;42.708;23.286;2023-04-29T02:21:57;7.85;58.80
79698;SHT31;69168;42.708;23.286;2023-04-29T02:24:23;7.73;59.11
79698;SHT31;69168;42.708;23.286;2023-04-29T02:26:48;7.81;58.35
79698;SHT31;69168;42.708;23.286;2023-04-29T02:29:14;7.73;58.74
79698;SHT31;69168;42.708;23.286;2023-04-29T02:31:39;7.74;58.83
79698;SHT31;69168;42.708;23.286;2023-04-29T02:34:04;7.74;58.50
79698;SHT31;69168;42.708;23.286;2023-04-29T02:36:30;7.68;58.72
79698;SHT31;69168;42.708;23.286;2023-04-29T02:38:56;7.70;58.32
79698;SHT31;69168;42.708;23.286;2023-04-29T02:41:21;7.66;58.34
79698;SHT31;69168;42.708;23.286;2023-04-29T02:43:47;7.53;58.70
79698;SHT31;69168;42.708;23.286;2023-04-29T02:46:16;7.39;58.93
79698;SHT31;69168;42.708;23.286;2023-04-29T02:48:42;7.29;59.23
79698;SHT31;69168;42.708;23.286;2023-04-29T02:51:08;7.29;59.19
79698;SHT31;69168;42.708;23.286;2023-04-29T02:53:33;7.20;59.32
79698;SHT31;69168;42.708;23.286;2023-04-29T02:55:59;7.15;59.51
79698;SHT31;69168;42.708;23.286;2023-04-29T02:58:25;6.95;59.68
79698;SHT31;69168;42.708;23.286;2023-04-29T03:00:50;6.81;60.39
79698;SHT31;69168;42.708;23.286;2023-04-29T03:03:16;6.91;60.28
79698;SHT31;69168;42.708;23.286;2023-04-29T03:05:42;6.96;60.33
79698;SHT31;69168;42.708;23.286;2023-04-29T03:08:07;7.06;59.95
79698;SHT31;69168;42.708;23.286;2023-04-29T03:10:34;7.13;59.89
79698;SHT31;69168;42.708;23.286;2023-04-29T03:13:00;7.12;59.85
79698;SHT31;69168;42.708;23.286;2023-04-29T03:15:25;7.16;59.65
79698;SHT31;69168;42.708;23.286;2023-04-29T03:17:51;6.99;60.13
79698;SHT31;69168;42.708;23.286;2023-04-29T03:20:16;6.99;60.39
79698;SHT31;69168;42.708;23.286;2023-04-29T03:22:42;7.06;60.34
79698;SHT31;69168;42.708;23.286;2023-04-29T03:25:07;7.04;60.33
79698;SHT31;69168;42.708;23.286;2023-04-29T03:27:34;6.92;60.58
79698;SHT31;69168;42.708;23.286;2023-04-29T03:30:00;6.83;60.97
79698;SHT31;69168;42.708;23.286;2023-04-29T03:32:26;6.78;61.10
79698;SHT31;69168;42.708;23.286;2023-04-29T03:34:51;6.80;61.31
79698;SHT31;69168;42.708;23.286;2023-04-29T03:37:17;6.84;61.36
79698;SHT31;69168;42.708;23.286;2023-04-29T03:39:42;6.80;61.50
79698;SHT31;69168;42.708;23.286;2023-04-29T03:42:07;6.66;62.09
79698;SHT31;69168;42.708;23.286;2023-04-29T03:44:33;6.87;61.54
79698;SHT31;69168;42.708;23.286;2023-04-29T03:46:58;6.87;61.35
79698;SHT31;69168;42.708;23.286;2023-04-29T03:49:24;6.94;61.91
79698;SHT31;69168;42.708;23.286;2023-04-29T03:51:50;7.05;61.50
79698;SHT31;69168;42.708;23.286;2023-04-29T03:54:16;7.09;61.54
79698;SHT31;69168;42.708;23.286;2023-04-29T03:56:41;7.20;61.36
79698;SHT31;69168;42.708;23.286;2023-04-29T03:59:07;7.15;61.43
79698;SHT31;69168;42.708;23.286;2023-04-29T04:01:33;7.22;61.53
79698;SHT31;69168;42.708;23.286;2023-04-29T04:03:58;7.30;61.57
79698;SHT31;69168;42.708;23.286;2023-04-29T04:06:24;7.33;61.67
79698;SHT31;69168;42.708;23.286;2023-04-29T04:08:50;7.37;61.81
79698;SHT31;69168;42.708;23.286;2023-04-29T04:11:15;7.37;61.54
79698;SHT31;69168;42.708;23.286;2023-04-29T04:13:41;7.22;61.44
79698;SHT31;69168;42.708;23.286;2023-04-29T04:16:08;7.15;61.50
79698;SHT31;69168;42.708;23.286;2023-04-29T04:18:37;7.04;62.44
79698;SHT31;69168;42.708;23.286;2023-04-29T04:21:10;6.96;62.69
79698;SHT31;69168;42.708;23.286;2023-04-29T04:23:37;7.08;62.76
79698;SHT31;69168;42.708;23.286;2023-04-29T04:26:05;7.24;62.07
79698;SHT31;69168;42.708;23.286;2023-04-29T04:28:30;7.18;62.50
79698;SHT31;69168;42.708;23.286;2023-04-29T04:30:56;7.22;62.27
79698;SHT31;69168;42.708;23.286;2023-04-29T04:33:21;7.30;61.48
79698;SHT31;69168;42.708;23.286;2023-04-29T04:35:47;7.26;61.93
79698;SHT31;69168;42.708;23.286;2023-04-29T04:38:12;7.20;61.35
79698;SHT31;69168;42.708;23.286;2023-04-29T04:40:42;7.32;60.97
79698;SHT31;69168;42.708;23.286;2023-04-29T04:43:08;7.46;60.53
79698;SHT31;69168;42.708;23.286;2023-04-29T04:45:34;7.26;60.72
79698;SHT31;69168;42.708;23.286;2023-04-29T04:47:59;7.29;60.97
79698;SHT31;69168;42.708;23.286;2023-04-29T04:50:28;7.30;61.08
79698;SHT31;69168;42.708;23.286;2023-04-29T04:52:54;7.49;60.51
79698;SHT31;69168;42.708;23.286;2023-04-29T04:55:20;7.64;60.59
79698;SHT31;69168;42.708;23.286;2023-04-29T04:57:46;7.79;60.16
79698;SHT31;69168;42.708;23.286;2023-04-29T05:00:12;7.98;59.66
79698;SHT31;69168;42.708;23.286;2023-04-29T05:02:37;7.96;59.91
79698;SHT31;69168;42.708;23.286;2023-04-29T05:05:03;8.13;58.99
79698;SHT31;69168;42.708;23.286;2023-04-29T05:07:28;7.87;58.94
79698;SHT31;69168;42.708;23.286;2023-04-29T05:09:54;7.71;59.57
79698;SHT31;69168;42.708;23.286;2023-04-29T05:12:19;7.96;59.24
79698;SHT31;69168;42.708;23.286;2023-04-29T05:14:45;8.17;58.71
79698;SHT31;69168;42.708;23.286;2023-04-29T05:17:10;8.36;57.75
79698;SHT31;69168;42.708;23.286;2023-04-29T05:19:36;8.50;57.53
79698;SHT31;69168;42.708;23.286;2023-04-29T05:22:01;8.40;57.84
79698;SHT31;69168;42.708;23.286;2023-04-29T05:24:27;8.43;57.67
79698;SHT31;69168;42.708;23.286;2023-04-29T05:26:53;8.44;57.53
79698;SHT31;69168;42.708;23.286;2023-04-29T05:29:19;8.37;57.53
79698;SHT31;69168;42.708;23.286;2023-04-29T05:31:44;8.53;57.08
79698;SHT31;69168;42.708;23.286;2023-04-29T05:34:10;8.53;57.62
79698;SHT31;69168;42.708;23.286;2023-04-29T05:36:35;8.44;57.94
79698;SHT31;69168;42.708;23.286;2023-04-29T05:39:01;8.51;57.90
79698;SHT31;69168;42.708;23.286;2023-04-29T05:41:26;8.60;57.56
79698;SHT31;69168;42.708;23.286;2023-04-29T05:43:52;8.87;57.21
79698;SHT31;69168;42.708;23.286;2023-04-29T05:46:17;8.59;57.81
79698;SHT31;69168;42.708;23.286;2023-04-29T05:48:44;8.53;57.50
79698;SHT31;69168;42.708;23.286;2023-04-29T05:51:10;8.59;57.55
79698;SHT31;69168;42.708;23.286;2023-04-29T05:53:36;8.53;57.99
79698;SHT31;69168;42.708;23.286;2023-04-29T05:56:03;8.57;57.67
79698;SHT31;69168;42.708;23.286;2023-04-29T05:58:32;8.59;57.22
79698;SHT31;69168;42.708;23.286;2023-04-29T06:00:57;8.84;56.94
79698;SHT31;69168;42.708;23.286;2023-04-29T06:03:23;8.75;57.26
79698;SHT31;69168;42.708;23.286;2023-04-29T06:05:48;8.68;57.01
79698;SHT31;69168;42.708;23.286;2023-04-29T06:08:14;8.72;56.50
79698;SHT31;69168;42.708;23.286;2023-04-29T06:10:39;9.04;55.78
79698;SHT31;69168;42.708;23.286;2023-04-29T06:13:05;9.01;55.67
79698;SHT31;69168;42.708;23.286;2023-04-29T06:15:30;9.06;55.69
79698;SHT31;69168;42.708;23.286;2023-04-29T06:17:56;9.06;55.74
79698;SHT31;69168;42.708;23.286;2023-04-29T06:20:22;9.26;55.77
79698;SHT31;69168;42.708;23.286;2023-04-29T06:22:47;9.50;55.82
79698;SHT31;69168;42.708;23.286;2023-04-29T06:25:13;9.51;54.53
79698;SHT31;69168;42.708;23.286;2023-04-29T06:27:39;9.46;54.65
79698;SHT31;69168;42.708;23.286;2023-04-29T06:30:05;9.39;55.03
79698;SHT31;69168;42.708;23.286;2023-04-29T06:32:30;9.36;55.28
79698;SHT31;69168;42.708;23.286;2023-04-29T06:34:56;9.51;55.03
79698;SHT31;69168;42.708;23.286;2023-04-29T06:37:21;9.61;54.76
79698;SHT31;69168;42.708;23.286;2023-04-29T06:39:47;9.57;54.77
79698;SHT31;69168;42.708;23.286;2023-04-29T06:42:12;9.67;54.73
79698;SHT31;69168;42.708;23.286;2023-04-29T06:44:38;10.03;52.78
79698;SHT31;69168;42.708;23.286;2023-04-29T06:47:03;10.25;52.05
79698;SHT31;69168;42.708;23.286;2023-04-29T06:49:29;10.10;52.99
79698;SHT31;69168;42.708;23.286;2023-04-29T06:51:54;9.94;53.10
79698;SHT31;69168;42.708;23.286;2023-04-29T06:54:20;9.99;53.36
79698;SHT31;69168;42.708;23.286;2023-04-29T06:56:45;9.99;53.56
79698;SHT31;69168;42.708;23.286;2023-04-29T06:59:11;10.06;53.41
79698;SHT31;69168;42.708;23.286;2023-04-29T07:01:37;10.15;53.67
79698;SHT31;69168;42.708;23.286;2023-04-29T07:04:03;10.25;53.44
79698;SHT31;69168;42.708;23.286;2023-04-29T07:06:29;10.35;53.12
79698;SHT31;69168;42.708;23.286;2023-04-29T07:08:54;10.39;53.35
79698;SHT31;69168;42.708;23.286;2023-04-29T07:11:20;10.52;51.95
79698;SHT31;69168;42.708;23.286;2023-04-29T07:13:46;10.53;51.06
79698;SHT31;69168;42.708;23.286;2023-04-29T07:16:15;10.54;50.68
79698;SHT31;69168;42.708;23.286;2023-04-29T07:18:42;10.49;51.54
79698;SHT31;69168;42.708;23.286;2023-04-29T07:21:07;10.46;51.84
79698;SHT31;69168;42.708;23.286;2023-04-29T07:23:32;10.68;51.12
79698;SHT31;69168;42.708;23.286;2023-04-29T07:25:58;10.85;50.38
79698;SHT31;69168;42.708;23.286;2023-04-29T07:28:23;10.92;50.54
79698;SHT31;69168;42.708;23.286;2023-04-29T07:30:49;11.04;50.76
79698;SHT31;69168;42.708;23.286;2023-04-29T07:33:14;11.49;49.58
79698;SHT31;69168;42.708;23.286;2023-04-29T07:35:41;11.66;48.41
79698;SHT31;69168;42.708;23.286;2023-04-29T07:38:08;11.73;48.45
79698;SHT31;69168;42.708;23.286;2023-04-29T07:40:34;11.78;47.82
79698;SHT31;69168;42.708;23.286;2023-04-29T07:42:59;11.90;48.17
79698;SHT31;69168;42.708;23.286;2023-04-29T07:45:29;12.15;46.36
79698;SHT31;69168;42.708;23.286;2023-04-29T07:47:54;12.12;46.15
79698;SHT31;69168;42.708;23.286;2023-04-29T07:50:19;12.17;46.41
79698;SHT31;69168;42.708;23.286;2023-04-29T07:52:45;12.26;46.13
79698;SHT31;69168;42.708;23.286;2023-04-29T07:55:11;12.32;45.95
79698;SHT31;69168;42.708;23.286;2023-04-29T07:57:36;12.52;46.07
79698;SHT31;69168;42.708;23.286;2023-04-29T08:00:02;12.72;46.44
79698;SHT31;69168;42.708;23.286;2023-04-29T08:02:28;12.68;46.04
79698;SHT31;69168;42.708;23.286;2023-04-29T08:04:54;12.81;46.27
79698;SHT31;69168;42.708;23.286;2023-04-29T08:07:20;13.02;46.76
79698;SHT31;69168;42.708;23.286;2023-04-29T08:09:45;13.08;46.14
79698;SHT31;69168;42.708;23.286;2023-04-29T08:12:11;13.25;46.61
79698;SHT31;69168;42.708;23.286;2023-04-29T08:14:36;13.56;43.35
79698;SHT31;69168;42.708;23.286;2023-04-29T08:17:02;13.60;43.58
79698;SHT31;69168;42.708;23.286;2023-04-29T08:19:27;13.73;43.65
79698;SHT31;69168;42.708;23.286;2023-04-29T08:21:53;13.73;43.21
79698;SHT31;69168;42.708;23.286;2023-04-29T08:24:18;13.66;43.48
79698;SHT31;69168;42.708;23.286;2023-04-29T08:26:45;13.63;42.21
79698;SHT31;69168;42.708;23.286;2023-04-29T08:29:11;13.74;43.21
79698;SHT31;69168;42.708;23.286;2023-04-29T08:31:36;13.81;42.88
79698;SHT31;69168;42.708;23.286;2023-04-29T08:34:02;13.94;43.45
79698;SHT31;69168;42.708;23.286;2023-04-29T08:36:27;14.17;42.84
79698;SHT31;69168;42.708;23.286;2023-04-29T08:38:55;14.29;42.95
79698;SHT31;69168;42.708;23.286;2023-04-29T08:41:20;14.32;41.46
79698;SHT31;69168;42.708;23.286;2023-04-29T08:43:46;14.22;41.30
79698;SHT31;69168;42.708;23.286;2023-04-29T08:46:12;14.28;42.27
79698;SHT31;69168;42.708;23.286;2023-04-29T08:48:38;14.35;42.18
79698;SHT31;69168;42.708;23.286;2023-04-29T08:51:05;14.45;42.76
79698;SHT31;69168;42.708;23.286;2023-04-29T08:53:31;14.59;42.68
79698;SHT31;69168;42.708;23.286;2023-04-29T08:56:02;14.72;42.85
79698;SHT31;69168;42.708;23.286;2023-04-29T08:58:33;14.83;42.09
79698;SHT31;69168;42.708;23.286;2023-04-29T09:01:00;14.97;40.29
79698;SHT31;69168;42.708;23.286;2023-04-29T09:03:33;15.18;39.78
79698;SHT31;69168;42.708;23.286;2023-04-29T09:06:02;15.48;38.06
79698;SHT31;69168;42.708;23.286;2023-04-29T09:08:29;15.34;38.79
79698;SHT31;69168;42.708;23.286;2023-04-29T09:10:55;15.22;40.85
79698;SHT31;69168;42.708;23.286;2023-04-29T09:13:28;15.24;40.93
79698;SHT31;69168;42.708;23.286;2023-04-29T09:15:54;15.30;39.00
79698;SHT31;69168;42.708;23.286;2023-04-29T09:18:48;15.12;38.27
79698;SHT31;69168;42.708;23.286;2023-04-29T09:21:25;15.11;39.84
79698;SHT31;69168;42.708;23.286;2023-04-29T09:23:58;15.03;40.22
79698;SHT31;69168;42.708;23.286;2023-04-29T09:26:24;15.20;39.92
79698;SHT31;69168;42.708;23.286;2023-04-29T09:29:10;15.14;39.25
79698;SHT31;69168;42.708;23.286;2023-04-29T09:31:38;15.00;39.31
79698;SHT31;69168;42.708;23.286;2023-04-29T09:34:03;15.05;40.10
79698;SHT31;69168;42.708;23.286;2023-04-29T09:36:39;15.31;39.40
79698;SHT31;69168;42.708;23.286;2023-04-29T09:39:09;15.38;39.40
79698;SHT31;69168;42.708;23.286;2023-04-29T09:41:58;15.43;38.66
79698;SHT31;69168;42.708;23.286;2023-04-29T09:44:26;15.74;38.20
79698;SHT31;69168;42.708;23.286;2023-04-29T09:46:59;16.13;37.80
79698;SHT31;69168;42.708;23.286;2023-04-29T09:49:34;16.18;37.44
79698;SHT31;69168;42.708;23.286;2023-04-29T09:52:06;16.32;37.53
79698;SHT31;69168;42.708;23.286;2023-04-29T09:54:33;16.33;37.85
79698;SHT31;69168;42.708;23.286;2023-04-29T09:57:01;16.66;38.02
79698;SHT31;69168;42.708;23.286;2023-04-29T09:59:36;16.81;37.59
79698;SHT31;69168;42.708;23.286;2023-04-29T10:02:12;16.66;35.94
79698;SHT31;69168;42.708;23.286;2023-04-29T10:04:40;16.22;36.08
79698;SHT31;69168;42.708;23.286;2023-04-29T10:07:07;16.05;35.35
79698;SHT31;69168;42.708;23.286;2023-04-29T10:09:35;15.98;35.85
79698;SHT31;69168;42.708;23.286;2023-04-29T10:12:04;15.90;36.02
79698;SHT31;69168;42.708;23.286;2023-04-29T10:14:38;15.80;36.12
79698;SHT31;69168;42.708;23.286;2023-04-29T10:17:10;15.86;34.73
79698;SHT31;69168;42.708;23.286;2023-04-29T10:20:03;15.82;35.44
79698;SHT31;69168;42.708;23.286;2023-04-29T10:22:39;15.91;34.68
79698;SHT31;69168;42.708;23.286;2023-04-29T10:25:06;15.96;36.53
79698;SHT31;69168;42.708;23.286;2023-04-29T10:27:36;16.17;37.53
79698;SHT31;69168;42.708;23.286;2023-04-29T10:30:01;16.41;37.80
79698;SHT31;69168;42.708;23.286;2023-04-29T10:32:29;16.45;38.49
79698;SHT31;69168;42.708;23.286;2023-04-29T10:34:57;16.26;38.07
79698;SHT31;69168;42.708;23.286;2023-04-29T10:37:23;16.14;38.44
79698;SHT31;69168;42.708;23.286;2023-04-29T10:53:18;16.48;35.23
79698;SHT31;69168;42.708;23.286;2023-04-29T10:55:52;16.35;33.88
79698;SHT31;69168;42.708;23.286;2023-04-29T10:58:37;16.53;35.81
79698;SHT31;69168;42.708;23.286;2023-04-29T11:01:03;16.66;36.77
79698;SHT31;69168;42.708;23.286;2023-04-29T11:03:49;16.96;36.10
79698;SHT31;69168;42.708;23.286;2023-04-29T11:06:19;16.97;37.18
79698;SHT31;69168;42.708;23.286;2023-04-29T11:08:44;16.72;31.55
79698;SHT31;69168;42.708;23.286;2023-04-29T11:11:12;16.48;29.51
79698;SHT31;69168;42.708;23.286;2023-04-29T11:13:38;16.41;30.66
79698;SHT31;69168;42.708;23.286;2023-04-29T11:16:06;16.32;31.06
79698;SHT31;69168;42.708;23.286;2023-04-29T11:18:33;16.22;30.96
79698;SHT31;69168;42.708;23.286;2023-04-29T11:23:33;16.24;31.11
79698;SHT31;69168;42.708;23.286;2023-04-29T11:26:00;16.17;30.45
79698;SHT31;69168;42.708;23.286;2023-04-29T11:28:27;16.25;30.78
79698;SHT31;69168;42.708;23.286;2023-04-29T11:30:53;16.31;31.56
79698;SHT31;69168;42.708;23.286;2023-04-29T11:33:22;16.38;31.53
79698;SHT31;69168;42.708;23.286;2023-04-29T11:35:47;16.36;30.50
79698;SHT31;69168;42.708;23.286;2023-04-29T11:38:13;16.38;29.98
79698;SHT31;69168;42.708;23.286;2023-04-29T11:40:47;16.07;31.36
79698;SHT31;69168;42.708;23.286;2023-04-29T11:43:17;15.80;31.16
79698;SHT31;69168;42.708;23.286;2023-04-29T11:45:44;15.82;31.50
79698;SHT31;69168;42.708;23.286;2023-04-29T11:48:22;16.00;30.56
79698;SHT31;69168;42.708;23.286;2023-04-29T11:50:50;15.83;30.99
79698;SHT31;69168;42.708;23.286;2023-04-29T11:53:19;15.69;31.41
79698;SHT31;69168;42.708;23.286;2023-04-29T11:55:45;15.74;31.81
79698;SHT31;69168;42.708;23.286;2023-04-29T11:58:13;15.77;32.54
79698;SHT31;69168;42.708;23.286;2023-04-29T12:00:39;15.74;32.39
79698;SHT31;69168;42.708;23.286;2023-04-29T12:03:16;15.74;32.91
79698;SHT31;69168;42.708;23.286;2023-04-29T12:05:46;15.76;33.15
79698;SHT31;69168;42.708;23.286;2023-04-29T12:08:12;15.76;33.44
79698;SHT31;69168;42.708;23.286;2023-04-29T12:10:38;15.86;33.67
79698;SHT31;69168;42.708;23.286;2023-04-29T12:13:04;15.79;33.59
79698;SHT31;69168;42.708;23.286;2023-04-29T12:15:30;15.76;33.82
79698;SHT31;69168;42.708;23.286;2023-04-29T12:17:56;15.82;34.33
79698;SHT31;69168;42.708;23.286;2023-04-29T12:20:21;15.69;34.75
79698;SHT31;69168;42.708;23.286;2023-04-29T12:22:47;15.67;35.06
79698;SHT31;69168;42.708;23.286;2023-04-29T12:25:14;15.69;34.58
79698;SHT31;69168;42.708;23.286;2023-04-29T12:27:40;15.87;33.93
79698;SHT31;69168;42.708;23.286;2023-04-29T12:30:09;15.86;34.65
79698;SHT31;69168;42.708;23.286;2023-04-29T12:32:35;15.74;34.35
79698;SHT31;69168;42.708;23.286;2023-04-29T12:35:01;15.73;34.32
79698;SHT31;69168;42.708;23.286;2023-04-29T12:37:27;15.77;34.41
79698;SHT31;69168;42.708;23.286;2023-04-29T12:39:54;16.03;34.20
79698;SHT31;69168;42.708;23.286;2023-04-29T12:42:19;16.15;34.72
79698;SHT31;69168;42.708;23.286;2023-04-29T12:44:46;16.03;35.62
79698;SHT31;69168;42.708;23.286;2023-04-29T12:47:12;16.10;35.75
79698;SHT31;69168;42.708;23.286;2023-04-29T12:49:45;16.21;35.80
79698;SHT31;69168;42.708;23.286;2023-04-29T12:52:11;16.28;35.38
79698;SHT31;69168;42.708;23.286;2023-04-29T12:54:40;16.32;35.67
79698;SHT31;69168;42.708;23.286;2023-04-29T12:57:08;16.31;35.39
79698;SHT31;69168;42.708;23.286;2023-04-29T12:59:34;16.26;35.62
79698;SHT31;69168;42.708;23.286;2023-04-29T13:02:00;16.32;34.96
79698;SHT31;69168;42.708;23.286;2023-04-29T13:04:26;16.56;34.00
79698;SHT31;69168;42.708;23.286;2023-04-29T13:06:52;16.65;34.01
79698;SHT31;69168;42.708;23.286;2023-04-29T13:09:24;16.77;34.45
79698;SHT31;69168;42.708;23.286;2023-04-29T13:11:49;16.79;34.31
79698;SHT31;69168;42.708;23.286;2023-04-29T13:14:16;16.86;34.27
79698;SHT31;69168;42.708;23.286;2023-04-29T13:16:41;17.02;33.74
79698;SHT31;69168;42.708;23.286;2023-04-29T13:19:07;16.91;33.32
79698;SHT31;69168;42.708;23.286;2023-04-29T13:21:32;16.83;33.16
79698;SHT31;69168;42.708;23.286;2023-04-29T13:23:57;16.94;33.13
79698;SHT31;69168;42.708;23.286;2023-04-29T13:26:23;16.99;32.97
79698;SHT31;69168;42.708;23.286;2023-04-29T13:28:50;16.93;33.23
79698;SHT31;69168;42.708;23.286;2023-04-29T13:31:16;17.34;33.38
79698;SHT31;69168;42.708;23.286;2023-04-29T13:33:41;17.30;34.08
79698;SHT31;69168;42.708;23.286;2023-04-29T13:36:07;17.36;34.01
79698;SHT31;69168;42.708;23.286;2023-04-29T13:38:33;17.35;34.23
79698;SHT31;69168;42.708;23.286;2023-04-29T13:40:59;17.04;35.15
79698;SHT31;69168;42.708;23.286;2023-04-29T13:43:24;17.10;35.62
79698;SHT31;69168;42.708;23.286;2023-04-29T13:45:50;17.21;37.16
79698;SHT31;69168;42.708;23.286;2023-04-29T13:48:15;17.28;37.03
79698;SHT31;69168;42.708;23.286;2023-04-29T13:50:41;17.31;36.18
79698;SHT31;69168;42.708;23.286;2023-04-29T13:53:06;17.48;35.90
79698;SHT31;69168;42.708;23.286;2023-04-29T13:55:32;17.98;35.91
79698;SHT31;69168;42.708;23.286;2023-04-29T13:58:01;18.47;35.62
79698;SHT31;69168;42.708;23.286;2023-04-29T14:00:26;18.96;33.08
79698;SHT31;69168;42.708;23.286;2023-04-29T14:02:52;19.35;32.92
79698;SHT31;69168;42.708;23.286;2023-04-29T14:05:17;19.66;32.66
79698;SHT31;69168;42.708;23.286;2023-04-29T14:07:43;19.94;31.09
79698;SHT31;69168;42.708;23.286;2023-04-29T14:10:09;19.61;31.01
79698;SHT31;69168;42.708;23.286;2023-04-29T14:12:34;20.12;30.98
79698;SHT31;69168;42.708;23.286;2023-04-29T14:15:00;19.72;30.88
79698;SHT31;69168;42.708;23.286;2023-04-29T14:17:25;19.59;31.39
79698;SHT31;69168;42.708;23.286;2023-04-29T14:19:51;19.18;32.15
79698;SHT31;69168;42.708;23.286;2023-04-29T14:22:17;18.99;32.46
79698;SHT31;69168;42.708;23.286;2023-04-29T14:24:42;18.72;32.91
79698;SHT31;69168;42.708;23.286;2023-04-29T14:27:08;18.73;33.13
79698;SHT31;69168;42.708;23.286;2023-04-29T14:29:33;18.61;33.81
79698;SHT31;69168;42.708;23.286;2023-04-29T14:31:59;18.24;34.31
79698;SHT31;69168;42.708;23.286;2023-04-29T14:34:24;18.27;34.55
79698;SHT31;69168;42.708;23.286;2023-04-29T14:36:50;18.00;34.57
79698;SHT31;69168;42.708;23.286;2023-04-29T14:39:16;17.98;34.77
79698;SHT31;69168;42.708;23.286;2023-04-29T14:41:41;18.06;34.76
79698;SHT31;69168;42.708;23.286;2023-04-29T14:44:07;18.69;33.91
79698;SHT31;69168;42.708;23.286;2023-04-29T14:46:32;18.82;33.06
79698;SHT31;69168;42.708;23.286;2023-04-29T14:48:58;19.27;32.27
79698;SHT31;69168;42.708;23.286;2023-04-29T14:51:23;19.79;31.70
79698;SHT31;69168;42.708;23.286;2023-04-29T14:53:49;19.58;32.29
79698;SHT31;69168;42.708;23.286;2023-04-29T14:56:16;19.06;33.34
79698;SHT31;69168;42.708;23.286;2023-04-29T14:58:42;19.06;33.44
79698;SHT31;69168;42.708;23.286;2023-04-29T15:01:07;18.63;34.11
79698;SHT31;69168;42.708;23.286;2023-04-29T15:03:33;18.77;33.68
79698;SHT31;69168;42.708;23.286;2023-04-29T15:06:00;18.79;33.72
79698;SHT31;69168;42.708;23.286;2023-04-29T15:08:27;18.61;33.94
79698;SHT31;69168;42.708;23.286;2023-04-29T15:10:53;18.48;34.48
79698;SHT31;69168;42.708;23.286;2023-04-29T15:13:18;18.17;35.32
79698;SHT31;69168;42.708;23.286;2023-04-29T15:15:44;17.83;35.84
79698;SHT31;69168;42.708;23.286;2023-04-29T15:18:09;17.76;36.00
79698;SHT31;69168;42.708;23.286;2023-04-29T15:20:35;17.68;35.90
79698;SHT31;69168;42.708;23.286;2023-04-29T15:23:02;17.59;36.05
79698;SHT31;69168;42.708;23.286;2023-04-29T15:25:28;17.48;36.36
79698;SHT31;69168;42.708;23.286;2023-04-29T15:27:53;17.39;36.42
79698;SHT31;69168;42.708;23.286;2023-04-29T15:30:19;17.17;37.00
79698;SHT31;69168;42.708;23.286;2023-04-29T15:32:44;17.03;37.55
79698;SHT31;69168;42.708;23.286;2023-04-29T15:35:10;16.96;37.29
79698;SHT31;69168;42.708;23.286;2023-04-29T15:37:37;16.87;37.02
79698;SHT31;69168;42.708;23.286;2023-04-29T15:40:03;16.83;37.44
79698;SHT31;69168;42.708;23.286;2023-04-29T15:42:29;16.73;37.45